sensor_id;sensor_type;location;lat;lon;timestamp;P1;durP1;ratioP1;P2;durP2;ratioP2
47539;SDS011;33280;52.152;21.052;2022-11-15T00:01:06;34.10;;;17.53;;
47539;SDS011;33280;52.152;21.052;2022-11-15T00:03:40;34.03;;;16.33;;
47539;SDS011;33280;52.152;21.052;2022-11-15T00:06:08;33.17;;;17.07;;
47539;SDS011;33280;52.152;21.052;2022-11-15T00:08:35;34.20;;;17.20;;
47539;SDS011;33280;52.152;21.052;2022-11-15T00:11:02;32.53;;;17.40;;
47539;SDS011;33280;52.152;21.052;2022-11-15T00:13:29;30.67;;;16.63;;
47539;SDS011;33280;52.152;21.052;2022-11-15T00:15:57;36.00;;;18.03;;
47539;SDS011;33280;52.152;21.052;2022-11-15T00:18:25;36.10;;;17.83;;
47539;SDS011;33280;52.152;21.052;2022-11-15T00:20:53;44.93;;;20.17;;
47539;SDS011;33280;52.152;21.052;2022-11-15T00:23:19;34.27;;;18.30;;
47539;SDS011;33280;52.152;21.052;2022-11-15T00:25:46;35.93;;;18.03;;
47539;SDS011;33280;52.152;21.052;2022-11-15T00:28:13;37.57;;;18.70;;
47539;SDS011;33280;52.152;21.052;2022-11-15T00:30:40;35.90;;;18.03;;
47539;SDS011;33280;52.152;21.052;2022-11-15T00:33:08;34.97;;;18.67;;
47539;SDS011;33280;52.152;21.052;2022-11-15T00:35:35;40.17;;;19.20;;
47539;SDS011;33280;52.152;21.052;2022-11-15T00:38:02;37.43;;;18.90;;
47539;SDS011;33280;52.152;21.052;2022-11-15T00:40:29;39.93;;;19.47;;
47539;SDS011;33280;52.152;21.052;2022-11-15T00:42:57;41.17;;;20.17;;
47539;SDS011;33280;52.152;21.052;2022-11-15T00:45:25;39.40;;;20.00;;
47539;SDS011;33280;52.152;21.052;2022-11-15T00:47:53;40.37;;;19.37;;
47539;SDS011;33280;52.152;21.052;2022-11-15T00:50:20;45.63;;;21.83;;
47539;SDS011;33280;52.152;21.052;2022-11-15T00:56:11;44.77;;;21.27;;
47539;SDS011;33280;52.152;21.052;2022-11-15T00:58:38;39.50;;;19.57;;
47539;SDS011;33280;52.152;21.052;2022-11-15T01:01:12;44.87;;;20.60;;
47539;SDS011;33280;52.152;21.052;2022-11-15T01:03:40;42.10;;;20.87;;
47539;SDS011;33280;52.152;21.052;2022-11-15T01:06:08;45.60;;;21.40;;
47539;SDS011;33280;52.152;21.052;2022-11-15T01:08:35;44.83;;;21.17;;
47539;SDS011;33280;52.152;21.052;2022-11-15T01:11:06;43.60;;;21.27;;
47539;SDS011;33280;52.152;21.052;2022-11-15T01:13:36;45.37;;;20.63;;
47539;SDS011;33280;52.152;21.052;2022-11-15T01:16:08;51.03;;;21.50;;
47539;SDS011;33280;52.152;21.052;2022-11-15T01:18:37;44.97;;;21.37;;
47539;SDS011;33280;52.152;21.052;2022-11-15T01:21:06;49.33;;;22.30;;
47539;SDS011;33280;52.152;21.052;2022-11-15T01:23:34;47.37;;;21.00;;
47539;SDS011;33280;52.152;21.052;2022-11-15T01:26:01;44.90;;;21.43;;
47539;SDS011;33280;52.152;21.052;2022-11-15T01:28:31;50.20;;;20.73;;
47539;SDS011;33280;52.152;21.052;2022-11-15T01:30:59;47.10;;;20.07;;
47539;SDS011;33280;52.152;21.052;2022-11-15T01:33:28;43.97;;;20.43;;
47539;SDS011;33280;52.152;21.052;2022-11-15T01:35:56;44.60;;;21.00;;
47539;SDS011;33280;52.152;21.052;2022-11-15T01:38:23;46.93;;;21.07;;
47539;SDS011;33280;52.152;21.052;2022-11-15T01:40:50;48.67;;;20.80;;
47539;SDS011;33280;52.152;21.052;2022-11-15T01:43:24;45.53;;;21.40;;
47539;SDS011;33280;52.152;21.052;2022-11-15T01:45:57;42.73;;;20.27;;
47539;SDS011;33280;52.152;21.052;2022-11-15T01:48:32;44.77;;;20.60;;
47539;SDS011;33280;52.152;21.052;2022-11-15T01:51:02;49.20;;;21.43;;
47539;SDS011;33280;52.152;21.052;2022-11-15T01:53:35;43.07;;;19.83;;
47539;SDS011;33280;52.152;21.052;2022-11-15T01:56:05;45.63;;;20.43;;
47539;SDS011;33280;52.152;21.052;2022-11-15T01:58:34;43.40;;;20.10;;
47539;SDS011;33280;52.152;21.052;2022-11-15T02:01:02;43.27;;;19.53;;
47539;SDS011;33280;52.152;21.052;2022-11-15T02:03:41;43.77;;;19.63;;
47539;SDS011;33280;52.152;21.052;2022-11-15T02:06:18;39.77;;;19.30;;
47539;SDS011;33280;52.152;21.052;2022-11-15T02:08:46;45.27;;;20.80;;
47539;SDS011;33280;52.152;21.052;2022-11-15T02:11:13;39.73;;;18.77;;
47539;SDS011;33280;52.152;21.052;2022-11-15T02:13:40;45.17;;;19.70;;
47539;SDS011;33280;52.152;21.052;2022-11-15T02:18:56;39.13;;;19.23;;
47539;SDS011;33280;52.152;21.052;2022-11-15T02:21:44;45.37;;;19.43;;
47539;SDS011;33280;52.152;21.052;2022-11-15T02:29:55;45.73;;;19.93;;
47539;SDS011;33280;52.152;21.052;2022-11-15T02:38:05;42.70;;;20.40;;
47539;SDS011;33280;52.152;21.052;2022-11-15T02:40:49;45.13;;;20.17;;
47539;SDS011;33280;52.152;21.052;2022-11-15T02:46:39;47.20;;;21.50;;
47539;SDS011;33280;52.152;21.052;2022-11-15T02:49:32;49.70;;;21.30;;
47539;SDS011;33280;52.152;21.052;2022-11-15T02:52:01;43.00;;;20.80;;
47539;SDS011;33280;52.152;21.052;2022-11-15T02:54:32;49.97;;;22.20;;
47539;SDS011;33280;52.152;21.052;2022-11-15T02:57:04;51.67;;;22.87;;
47539;SDS011;33280;52.152;21.052;2022-11-15T02:59:44;50.77;;;22.67;;
47539;SDS011;33280;52.152;21.052;2022-11-15T03:07:29;51.13;;;22.57;;
47539;SDS011;33280;52.152;21.052;2022-11-15T03:10:18;52.93;;;23.43;;
47539;SDS011;33280;52.152;21.052;2022-11-15T03:12:59;60.93;;;24.37;;
47539;SDS011;33280;52.152;21.052;2022-11-15T03:15:51;53.47;;;23.73;;
47539;SDS011;33280;52.152;21.052;2022-11-15T03:18:43;55.30;;;24.33;;
47539;SDS011;33280;52.152;21.052;2022-11-15T03:21:16;54.50;;;23.10;;
47539;SDS011;33280;52.152;21.052;2022-11-15T03:23:45;56.30;;;24.23;;
47539;SDS011;33280;52.152;21.052;2022-11-15T03:26:15;55.80;;;24.20;;
47539;SDS011;33280;52.152;21.052;2022-11-15T03:28:52;52.43;;;23.57;;
47539;SDS011;33280;52.152;21.052;2022-11-15T03:31:22;51.97;;;23.70;;
47539;SDS011;33280;52.152;21.052;2022-11-15T03:37:03;52.37;;;23.23;;
47539;SDS011;33280;52.152;21.052;2022-11-15T03:39:31;54.10;;;23.07;;
47539;SDS011;33280;52.152;21.052;2022-11-15T03:44:47;55.67;;;24.23;;
47539;SDS011;33280;52.152;21.052;2022-11-15T03:47:39;59.23;;;23.97;;
47539;SDS011;33280;52.152;21.052;2022-11-15T03:50:11;55.97;;;23.77;;
47539;SDS011;33280;52.152;21.052;2022-11-15T03:52:42;54.17;;;23.83;;
47539;SDS011;33280;52.152;21.052;2022-11-15T03:55:14;56.90;;;24.33;;
47539;SDS011;33280;52.152;21.052;2022-11-15T03:57:44;55.53;;;24.13;;
47539;SDS011;33280;52.152;21.052;2022-11-15T04:00:12;57.20;;;24.03;;
47539;SDS011;33280;52.152;21.052;2022-11-15T04:02:39;53.80;;;23.13;;
47539;SDS011;33280;52.152;21.052;2022-11-15T04:05:06;58.10;;;24.13;;
47539;SDS011;33280;52.152;21.052;2022-11-15T04:07:33;58.63;;;23.20;;
47539;SDS011;33280;52.152;21.052;2022-11-15T04:10:00;55.77;;;22.73;;
47539;SDS011;33280;52.152;21.052;2022-11-15T04:12:35;53.57;;;23.60;;
47539;SDS011;33280;52.152;21.052;2022-11-15T04:15:04;54.73;;;22.70;;
47539;SDS011;33280;52.152;21.052;2022-11-15T04:17:44;56.93;;;23.33;;
47539;SDS011;33280;52.152;21.052;2022-11-15T04:20:17;55.20;;;23.63;;
47539;SDS011;33280;52.152;21.052;2022-11-15T04:23:04;55.87;;;23.13;;
47539;SDS011;33280;52.152;21.052;2022-11-15T04:25:52;56.17;;;23.53;;
47539;SDS011;33280;52.152;21.052;2022-11-15T04:28:21;53.73;;;22.50;;
47539;SDS011;33280;52.152;21.052;2022-11-15T04:30:48;53.50;;;22.27;;
47539;SDS011;33280;52.152;21.052;2022-11-15T04:33:15;53.43;;;23.00;;
47539;SDS011;33280;52.152;21.052;2022-11-15T04:35:42;53.00;;;21.97;;
47539;SDS011;33280;52.152;21.052;2022-11-15T04:38:10;48.07;;;20.47;;
47539;SDS011;33280;52.152;21.052;2022-11-15T04:40:37;47.73;;;20.27;;
47539;SDS011;33280;52.152;21.052;2022-11-15T04:43:04;51.77;;;21.40;;
47539;SDS011;33280;52.152;21.052;2022-11-15T04:45:31;50.70;;;20.50;;
47539;SDS011;33280;52.152;21.052;2022-11-15T04:47:58;50.63;;;20.63;;
47539;SDS011;33280;52.152;21.052;2022-11-15T04:50:25;54.33;;;21.97;;
47539;SDS011;33280;52.152;21.052;2022-11-15T04:52:52;52.90;;;21.23;;
47539;SDS011;33280;52.152;21.052;2022-11-15T04:55:20;62.13;;;23.20;;
47539;SDS011;33280;52.152;21.052;2022-11-15T04:57:47;55.90;;;22.20;;
47539;SDS011;33280;52.152;21.052;2022-11-15T05:00:15;59.63;;;22.20;;
47539;SDS011;33280;52.152;21.052;2022-11-15T05:02:43;55.90;;;22.30;;
47539;SDS011;33280;52.152;21.052;2022-11-15T05:05:28;55.07;;;22.20;;
47539;SDS011;33280;52.152;21.052;2022-11-15T05:07:55;58.67;;;22.60;;
47539;SDS011;33280;52.152;21.052;2022-11-15T05:10:22;53.03;;;21.87;;
47539;SDS011;33280;52.152;21.052;2022-11-15T05:12:49;62.73;;;23.73;;
47539;SDS011;33280;52.152;21.052;2022-11-15T05:15:15;62.07;;;22.50;;
47539;SDS011;33280;52.152;21.052;2022-11-15T05:17:43;58.83;;;22.90;;
47539;SDS011;33280;52.152;21.052;2022-11-15T05:20:10;56.33;;;22.17;;
47539;SDS011;33280;52.152;21.052;2022-11-15T05:22:37;54.63;;;21.73;;
47539;SDS011;33280;52.152;21.052;2022-11-15T05:25:04;93.90;;;25.23;;
47539;SDS011;33280;52.152;21.052;2022-11-15T05:27:32;58.67;;;22.13;;
47539;SDS011;33280;52.152;21.052;2022-11-15T05:30:00;58.40;;;22.43;;
47539;SDS011;33280;52.152;21.052;2022-11-15T05:32:27;54.90;;;21.87;;
47539;SDS011;33280;52.152;21.052;2022-11-15T05:34:54;58.70;;;21.43;;
47539;SDS011;33280;52.152;21.052;2022-11-15T05:37:22;58.13;;;22.97;;
47539;SDS011;33280;52.152;21.052;2022-11-15T05:39:49;56.60;;;22.23;;
47539;SDS011;33280;52.152;21.052;2022-11-15T05:42:16;61.77;;;21.77;;
47539;SDS011;33280;52.152;21.052;2022-11-15T05:44:44;53.80;;;20.80;;
47539;SDS011;33280;52.152;21.052;2022-11-15T05:47:19;55.23;;;22.00;;
47539;SDS011;33280;52.152;21.052;2022-11-15T05:49:51;58.57;;;21.60;;
47539;SDS011;33280;52.152;21.052;2022-11-15T05:52:20;53.53;;;20.77;;
47539;SDS011;33280;52.152;21.052;2022-11-15T05:54:51;58.57;;;21.00;;
47539;SDS011;33280;52.152;21.052;2022-11-15T05:57:20;59.63;;;22.27;;
47539;SDS011;33280;52.152;21.052;2022-11-15T05:59:47;61.40;;;22.43;;
47539;SDS011;33280;52.152;21.052;2022-11-15T06:02:14;54.77;;;21.07;;
47539;SDS011;33280;52.152;21.052;2022-11-15T06:04:41;58.33;;;20.90;;
47539;SDS011;33280;52.152;21.052;2022-11-15T06:07:07;59.87;;;21.27;;
47539;SDS011;33280;52.152;21.052;2022-11-15T06:09:34;63.70;;;21.70;;
47539;SDS011;33280;52.152;21.052;2022-11-15T06:12:01;61.50;;;22.60;;
47539;SDS011;33280;52.152;21.052;2022-11-15T06:14:28;61.93;;;22.57;;
47539;SDS011;33280;52.152;21.052;2022-11-15T06:16:56;60.00;;;22.43;;
47539;SDS011;33280;52.152;21.052;2022-11-15T06:19:22;60.80;;;21.60;;
47539;SDS011;33280;52.152;21.052;2022-11-15T06:21:49;61.93;;;21.67;;
47539;SDS011;33280;52.152;21.052;2022-11-15T06:24:16;54.93;;;19.80;;
47539;SDS011;33280;52.152;21.052;2022-11-15T06:26:43;57.03;;;20.70;;
47539;SDS011;33280;52.152;21.052;2022-11-15T06:29:10;61.10;;;21.60;;
47539;SDS011;33280;52.152;21.052;2022-11-15T06:31:37;58.17;;;20.63;;
47539;SDS011;33280;52.152;21.052;2022-11-15T06:34:04;64.53;;;22.63;;
47539;SDS011;33280;52.152;21.052;2022-11-15T06:36:33;60.43;;;21.37;;
47539;SDS011;33280;52.152;21.052;2022-11-15T06:39:02;57.20;;;21.00;;
47539;SDS011;33280;52.152;21.052;2022-11-15T06:41:30;63.73;;;22.27;;
47539;SDS011;33280;52.152;21.052;2022-11-15T06:44:00;61.80;;;21.87;;
47539;SDS011;33280;52.152;21.052;2022-11-15T06:46:27;61.37;;;21.47;;
47539;SDS011;33280;52.152;21.052;2022-11-15T06:48:54;57.80;;;21.83;;
47539;SDS011;33280;52.152;21.052;2022-11-15T06:51:21;68.63;;;22.47;;
47539;SDS011;33280;52.152;21.052;2022-11-15T06:53:48;61.57;;;22.87;;
47539;SDS011;33280;52.152;21.052;2022-11-15T06:56:15;63.67;;;22.53;;
47539;SDS011;33280;52.152;21.052;2022-11-15T06:58:42;66.27;;;22.07;;
47539;SDS011;33280;52.152;21.052;2022-11-15T07:01:10;60.27;;;20.87;;
47539;SDS011;33280;52.152;21.052;2022-11-15T07:03:39;56.47;;;21.53;;
47539;SDS011;33280;52.152;21.052;2022-11-15T07:06:07;51.27;;;19.13;;
47539;SDS011;33280;52.152;21.052;2022-11-15T07:08:35;46.70;;;17.70;;
47539;SDS011;33280;52.152;21.052;2022-11-15T07:11:04;47.97;;;18.63;;
47539;SDS011;33280;52.152;21.052;2022-11-15T07:13:33;47.63;;;18.37;;
47539;SDS011;33280;52.152;21.052;2022-11-15T07:16:04;50.47;;;18.87;;
47539;SDS011;33280;52.152;21.052;2022-11-15T07:18:36;45.67;;;18.10;;
47539;SDS011;33280;52.152;21.052;2022-11-15T07:21:05;51.70;;;19.57;;
47539;SDS011;33280;52.152;21.052;2022-11-15T07:23:38;55.03;;;19.50;;
47539;SDS011;33280;52.152;21.052;2022-11-15T07:26:06;53.03;;;19.83;;
47539;SDS011;33280;52.152;21.052;2022-11-15T07:28:34;52.67;;;19.83;;
47539;SDS011;33280;52.152;21.052;2022-11-15T07:31:05;50.03;;;20.37;;
47539;SDS011;33280;52.152;21.052;2022-11-15T07:33:34;51.77;;;19.40;;
47539;SDS011;33280;52.152;21.052;2022-11-15T07:36:02;48.43;;;18.77;;
47539;SDS011;33280;52.152;21.052;2022-11-15T07:38:32;52.37;;;19.83;;
47539;SDS011;33280;52.152;21.052;2022-11-15T07:41:07;53.00;;;18.80;;
47539;SDS011;33280;52.152;21.052;2022-11-15T07:43:34;54.97;;;20.37;;
47539;SDS011;33280;52.152;21.052;2022-11-15T07:46:05;56.10;;;20.23;;
47539;SDS011;33280;52.152;21.052;2022-11-15T07:48:36;53.57;;;19.83;;
47539;SDS011;33280;52.152;21.052;2022-11-15T07:51:13;46.93;;;18.27;;
47539;SDS011;33280;52.152;21.052;2022-11-15T07:53:42;44.50;;;18.20;;
47539;SDS011;33280;52.152;21.052;2022-11-15T07:56:12;41.20;;;17.57;;
47539;SDS011;33280;52.152;21.052;2022-11-15T07:58:39;43.60;;;18.80;;
47539;SDS011;33280;52.152;21.052;2022-11-15T08:01:07;41.37;;;16.10;;
47539;SDS011;33280;52.152;21.052;2022-11-15T08:03:36;37.33;;;16.87;;
47539;SDS011;33280;52.152;21.052;2022-11-15T08:06:04;41.43;;;16.67;;
47539;SDS011;33280;52.152;21.052;2022-11-15T08:08:31;40.00;;;16.53;;
47539;SDS011;33280;52.152;21.052;2022-11-15T08:10:58;36.90;;;16.20;;
47539;SDS011;33280;52.152;21.052;2022-11-15T08:13:25;36.87;;;16.30;;
47539;SDS011;33280;52.152;21.052;2022-11-15T08:15:57;36.00;;;15.80;;
47539;SDS011;33280;52.152;21.052;2022-11-15T08:18:25;35.57;;;15.77;;
47539;SDS011;33280;52.152;21.052;2022-11-15T08:20:52;41.57;;;17.10;;
47539;SDS011;33280;52.152;21.052;2022-11-15T08:23:19;41.00;;;16.30;;
47539;SDS011;33280;52.152;21.052;2022-11-15T08:25:46;42.17;;;17.27;;
47539;SDS011;33280;52.152;21.052;2022-11-15T08:28:13;42.87;;;17.33;;
47539;SDS011;33280;52.152;21.052;2022-11-15T08:30:43;45.37;;;18.47;;
47539;SDS011;33280;52.152;21.052;2022-11-15T08:33:14;42.40;;;17.20;;
47539;SDS011;33280;52.152;21.052;2022-11-15T08:35:41;43.03;;;17.83;;
47539;SDS011;33280;52.152;21.052;2022-11-15T08:38:09;41.93;;;16.30;;
47539;SDS011;33280;52.152;21.052;2022-11-15T08:40:36;40.30;;;16.57;;
47539;SDS011;33280;52.152;21.052;2022-11-15T08:43:04;37.93;;;15.67;;
47539;SDS011;33280;52.152;21.052;2022-11-15T08:45:33;43.30;;;17.53;;
47539;SDS011;33280;52.152;21.052;2022-11-15T08:48:01;40.93;;;16.17;;
47539;SDS011;33280;52.152;21.052;2022-11-15T08:50:29;36.20;;;16.00;;
47539;SDS011;33280;52.152;21.052;2022-11-15T08:52:56;42.30;;;16.50;;
47539;SDS011;33280;52.152;21.052;2022-11-15T08:55:23;40.03;;;16.53;;
47539;SDS011;33280;52.152;21.052;2022-11-15T08:57:50;39.07;;;16.47;;
47539;SDS011;33280;52.152;21.052;2022-11-15T09:00:17;36.93;;;16.50;;
47539;SDS011;33280;52.152;21.052;2022-11-15T09:02:46;37.80;;;15.77;;
47539;SDS011;33280;52.152;21.052;2022-11-15T09:05:13;44.20;;;17.20;;
47539;SDS011;33280;52.152;21.052;2022-11-15T09:07:41;39.63;;;17.53;;
47539;SDS011;33280;52.152;21.052;2022-11-15T09:10:09;38.03;;;16.93;;
47539;SDS011;33280;52.152;21.052;2022-11-15T09:12:36;41.07;;;16.67;;
47539;SDS011;33280;52.152;21.052;2022-11-15T09:15:04;52.80;;;19.60;;
47539;SDS011;33280;52.152;21.052;2022-11-15T09:17:31;39.33;;;17.00;;
47539;SDS011;33280;52.152;21.052;2022-11-15T09:19:58;44.50;;;18.30;;
47539;SDS011;33280;52.152;21.052;2022-11-15T09:22:25;36.90;;;17.53;;
47539;SDS011;33280;52.152;21.052;2022-11-15T09:24:52;37.90;;;16.63;;
47539;SDS011;33280;52.152;21.052;2022-11-15T09:27:20;41.67;;;17.57;;
47539;SDS011;33280;52.152;21.052;2022-11-15T09:29:47;38.90;;;16.70;;
47539;SDS011;33280;52.152;21.052;2022-11-15T09:32:16;37.60;;;17.00;;
47539;SDS011;33280;52.152;21.052;2022-11-15T09:34:43;35.63;;;16.67;;
47539;SDS011;33280;52.152;21.052;2022-11-15T09:37:11;42.30;;;17.57;;
47539;SDS011;33280;52.152;21.052;2022-11-15T09:39:38;46.40;;;18.40;;
47539;SDS011;33280;52.152;21.052;2022-11-15T09:51:53;41.47;;;17.27;;
47539;SDS011;33280;52.152;21.052;2022-11-15T09:55:04;42.27;;;18.57;;
47539;SDS011;33280;52.152;21.052;2022-11-15T09:58:24;42.63;;;18.57;;
47539;SDS011;33280;52.152;21.052;2022-11-15T10:10:47;40.70;;;18.13;;
47539;SDS011;33280;52.152;21.052;2022-11-15T10:18:08;42.67;;;18.93;;
47539;SDS011;33280;52.152;21.052;2022-11-15T10:24:34;41.67;;;18.90;;
47539;SDS011;33280;52.152;21.052;2022-11-15T10:27:19;42.27;;;19.10;;
47539;SDS011;33280;52.152;21.052;2022-11-15T10:30:00;43.80;;;18.67;;
47539;SDS011;33280;52.152;21.052;2022-11-15T10:32:44;40.33;;;19.00;;
47539;SDS011;33280;52.152;21.052;2022-11-15T10:35:28;44.63;;;19.90;;
47539;SDS011;33280;52.152;21.052;2022-11-15T10:38:11;42.17;;;19.50;;
47539;SDS011;33280;52.152;21.052;2022-11-15T10:40:53;41.50;;;18.93;;
47539;SDS011;33280;52.152;21.052;2022-11-15T10:43:34;44.40;;;18.80;;
47539;SDS011;33280;52.152;21.052;2022-11-15T10:46:14;43.10;;;19.63;;
47539;SDS011;33280;52.152;21.052;2022-11-15T10:49:15;43.13;;;18.97;;
47539;SDS011;33280;52.152;21.052;2022-11-15T10:59:42;44.80;;;19.47;;
47539;SDS011;33280;52.152;21.052;2022-11-15T11:02:28;40.97;;;19.67;;
47539;SDS011;33280;52.152;21.052;2022-11-15T11:05:00;50.47;;;19.70;;
47539;SDS011;33280;52.152;21.052;2022-11-15T11:07:33;40.67;;;18.63;;
47539;SDS011;33280;52.152;21.052;2022-11-15T11:10:05;39.23;;;18.53;;
47539;SDS011;33280;52.152;21.052;2022-11-15T11:13:23;47.13;;;20.00;;
47539;SDS011;33280;52.152;21.052;2022-11-15T11:16:15;43.60;;;19.50;;
47539;SDS011;33280;52.152;21.052;2022-11-15T11:24:40;39.90;;;18.57;;
47539;SDS011;33280;52.152;21.052;2022-11-15T11:30:32;41.20;;;19.07;;
47539;SDS011;33280;52.152;21.052;2022-11-15T11:33:22;44.70;;;19.60;;
47539;SDS011;33280;52.152;21.052;2022-11-15T11:49:16;48.00;;;21.37;;
47539;SDS011;33280;52.152;21.052;2022-11-15T11:52:18;41.23;;;19.60;;
47539;SDS011;33280;52.152;21.052;2022-11-15T11:57:51;51.17;;;21.27;;
47539;SDS011;33280;52.152;21.052;2022-11-15T12:00:31;46.67;;;21.00;;
47539;SDS011;33280;52.152;21.052;2022-11-15T12:03:07;47.33;;;21.23;;
47539;SDS011;33280;52.152;21.052;2022-11-15T12:13:53;48.37;;;21.40;;
47539;SDS011;33280;52.152;21.052;2022-11-15T12:16:26;47.87;;;21.83;;
47539;SDS011;33280;52.152;21.052;2022-11-15T12:18:56;48.20;;;21.37;;
47539;SDS011;33280;52.152;21.052;2022-11-15T12:24:06;47.93;;;22.37;;
47539;SDS011;33280;52.152;21.052;2022-11-15T12:26:46;51.77;;;22.17;;
47539;SDS011;33280;52.152;21.052;2022-11-15T12:32:05;48.37;;;23.53;;
47539;SDS011;33280;52.152;21.052;2022-11-15T12:34:49;46.20;;;22.17;;
47539;SDS011;33280;52.152;21.052;2022-11-15T12:37:33;44.27;;;21.63;;
47539;SDS011;33280;52.152;21.052;2022-11-15T12:43:01;46.97;;;22.17;;
47539;SDS011;33280;52.152;21.052;2022-11-15T12:46:00;45.00;;;21.17;;
47539;SDS011;33280;52.152;21.052;2022-11-15T12:51:04;47.57;;;21.93;;
47539;SDS011;33280;52.152;21.052;2022-11-15T12:53:31;49.00;;;21.93;;
47539;SDS011;33280;52.152;21.052;2022-11-15T13:04:08;50.60;;;22.77;;
47539;SDS011;33280;52.152;21.052;2022-11-15T13:06:42;46.43;;;22.73;;
47539;SDS011;33280;52.152;21.052;2022-11-15T13:12:11;46.83;;;22.57;;
47539;SDS011;33280;52.152;21.052;2022-11-15T13:17:51;48.30;;;22.87;;
47539;SDS011;33280;52.152;21.052;2022-11-15T13:20:20;47.10;;;22.70;;
47539;SDS011;33280;52.152;21.052;2022-11-15T13:28:11;52.37;;;23.47;;
47539;SDS011;33280;52.152;21.052;2022-11-15T13:33:17;46.97;;;22.13;;
47539;SDS011;33280;52.152;21.052;2022-11-15T13:35:49;48.03;;;22.27;;
47539;SDS011;33280;52.152;21.052;2022-11-15T13:38:27;49.20;;;22.33;;
47539;SDS011;33280;52.152;21.052;2022-11-15T13:40:57;47.07;;;22.57;;
47539;SDS011;33280;52.152;21.052;2022-11-15T13:48:36;49.13;;;23.97;;
47539;SDS011;33280;52.152;21.052;2022-11-15T13:51:04;47.83;;;23.73;;
47539;SDS011;33280;52.152;21.052;2022-11-15T13:54:09;47.43;;;22.93;;
47539;SDS011;33280;52.152;21.052;2022-11-15T13:56:58;50.30;;;22.47;;
47539;SDS011;33280;52.152;21.052;2022-11-15T13:59:31;47.60;;;23.13;;
47539;SDS011;33280;52.152;21.052;2022-11-15T14:02:20;47.20;;;22.97;;
47539;SDS011;33280;52.152;21.052;2022-11-15T14:07:26;51.83;;;24.53;;
47539;SDS011;33280;52.152;21.052;2022-11-15T14:09:59;54.03;;;24.73;;
47539;SDS011;33280;52.152;21.052;2022-11-15T14:12:51;46.70;;;23.40;;
47539;SDS011;33280;52.152;21.052;2022-11-15T14:15:24;52.83;;;23.93;;
47539;SDS011;33280;52.152;21.052;2022-11-15T14:17:52;49.00;;;23.77;;
47539;SDS011;33280;52.152;21.052;2022-11-15T14:23:20;50.83;;;23.30;;
47539;SDS011;33280;52.152;21.052;2022-11-15T14:25:58;48.20;;;23.57;;
47539;SDS011;33280;52.152;21.052;2022-11-15T14:30:54;51.63;;;23.90;;
47539;SDS011;33280;52.152;21.052;2022-11-15T14:36:13;55.23;;;25.07;;
47539;SDS011;33280;52.152;21.052;2022-11-15T14:38:45;52.87;;;24.23;;
47539;SDS011;33280;52.152;21.052;2022-11-15T14:41:23;55.27;;;25.47;;
47539;SDS011;33280;52.152;21.052;2022-11-15T14:43:51;54.07;;;24.23;;
47539;SDS011;33280;52.152;21.052;2022-11-15T14:46:19;52.50;;;25.43;;
47539;SDS011;33280;52.152;21.052;2022-11-15T14:48:51;55.13;;;24.97;;
47539;SDS011;33280;52.152;21.052;2022-11-15T14:51:18;54.37;;;24.97;;
47539;SDS011;33280;52.152;21.052;2022-11-15T14:53:46;56.00;;;25.63;;
47539;SDS011;33280;52.152;21.052;2022-11-15T14:56:13;52.10;;;24.47;;
47539;SDS011;33280;52.152;21.052;2022-11-15T14:58:42;57.07;;;25.47;;
47539;SDS011;33280;52.152;21.052;2022-11-15T15:01:12;50.20;;;23.87;;
47539;SDS011;33280;52.152;21.052;2022-11-15T15:03:45;54.27;;;25.53;;
47539;SDS011;33280;52.152;21.052;2022-11-15T15:06:12;56.43;;;25.60;;
47539;SDS011;33280;52.152;21.052;2022-11-15T15:08:44;57.20;;;26.00;;
47539;SDS011;33280;52.152;21.052;2022-11-15T15:13:48;57.97;;;26.00;;
47539;SDS011;33280;52.152;21.052;2022-11-15T15:16:15;54.07;;;25.93;;
47539;SDS011;33280;52.152;21.052;2022-11-15T15:18:42;53.77;;;25.40;;
47539;SDS011;33280;52.152;21.052;2022-11-15T15:21:22;55.30;;;25.13;;
47539;SDS011;33280;52.152;21.052;2022-11-15T15:23:50;62.50;;;26.63;;
47539;SDS011;33280;52.152;21.052;2022-11-15T15:26:20;58.63;;;26.77;;
47539;SDS011;33280;52.152;21.052;2022-11-15T15:28:47;57.90;;;26.00;;
47539;SDS011;33280;52.152;21.052;2022-11-15T15:31:15;61.23;;;26.97;;
47539;SDS011;33280;52.152;21.052;2022-11-15T15:33:41;60.07;;;27.03;;
47539;SDS011;33280;52.152;21.052;2022-11-15T15:36:12;59.47;;;27.27;;
47539;SDS011;33280;52.152;21.052;2022-11-15T15:38:40;60.97;;;27.17;;
47539;SDS011;33280;52.152;21.052;2022-11-15T15:41:11;64.27;;;27.03;;
47539;SDS011;33280;52.152;21.052;2022-11-15T15:43:39;59.50;;;26.50;;
47539;SDS011;33280;52.152;21.052;2022-11-15T15:46:10;61.80;;;26.23;;
47539;SDS011;33280;52.152;21.052;2022-11-15T15:48:38;56.73;;;25.73;;
47539;SDS011;33280;52.152;21.052;2022-11-15T15:51:06;57.57;;;25.57;;
47539;SDS011;33280;52.152;21.052;2022-11-15T15:53:44;52.13;;;24.47;;
47539;SDS011;33280;52.152;21.052;2022-11-15T15:56:11;59.60;;;25.87;;
47539;SDS011;33280;52.152;21.052;2022-11-15T15:58:38;58.13;;;25.67;;
47539;SDS011;33280;52.152;21.052;2022-11-15T16:01:05;59.40;;;26.27;;
47539;SDS011;33280;52.152;21.052;2022-11-15T16:03:32;57.77;;;25.50;;
47539;SDS011;33280;52.152;21.052;2022-11-15T16:05:59;65.40;;;26.67;;
47539;SDS011;33280;52.152;21.052;2022-11-15T16:08:27;66.23;;;26.93;;
47539;SDS011;33280;52.152;21.052;2022-11-15T16:11:13;65.70;;;26.67;;
47539;SDS011;33280;52.152;21.052;2022-11-15T16:13:40;64.47;;;27.60;;
47539;SDS011;33280;52.152;21.052;2022-11-15T16:16:12;61.63;;;26.40;;
47539;SDS011;33280;52.152;21.052;2022-11-15T16:18:39;61.37;;;26.17;;
47539;SDS011;33280;52.152;21.052;2022-11-15T16:21:07;60.13;;;25.70;;
47539;SDS011;33280;52.152;21.052;2022-11-15T16:23:35;60.17;;;25.47;;
47539;SDS011;33280;52.152;21.052;2022-11-15T16:26:02;62.73;;;27.37;;
47539;SDS011;33280;52.152;21.052;2022-11-15T16:28:44;60.87;;;25.83;;
47539;SDS011;33280;52.152;21.052;2022-11-15T16:31:11;63.83;;;26.13;;
47539;SDS011;33280;52.152;21.052;2022-11-15T16:33:39;67.27;;;26.37;;
47539;SDS011;33280;52.152;21.052;2022-11-15T16:36:12;68.67;;;25.57;;
47539;SDS011;33280;52.152;21.052;2022-11-15T16:38:55;61.53;;;25.17;;
47539;SDS011;33280;52.152;21.052;2022-11-15T16:41:22;66.53;;;26.30;;
47539;SDS011;33280;52.152;21.052;2022-11-15T16:43:49;69.47;;;26.93;;
47539;SDS011;33280;52.152;21.052;2022-11-15T16:46:23;72.13;;;26.23;;
47539;SDS011;33280;52.152;21.052;2022-11-15T16:48:52;65.80;;;26.57;;
47539;SDS011;33280;52.152;21.052;2022-11-15T16:51:19;64.80;;;26.27;;
47539;SDS011;33280;52.152;21.052;2022-11-15T16:53:47;69.00;;;26.23;;
47539;SDS011;33280;52.152;21.052;2022-11-15T16:56:23;68.03;;;25.50;;
47539;SDS011;33280;52.152;21.052;2022-11-15T16:58:55;68.80;;;26.70;;
47539;SDS011;33280;52.152;21.052;2022-11-15T17:01:28;71.60;;;26.23;;
47539;SDS011;33280;52.152;21.052;2022-11-15T17:04:02;69.03;;;25.63;;
47539;SDS011;33280;52.152;21.052;2022-11-15T17:06:38;70.60;;;25.97;;